createdAt,value
2022-08-17T00:00:42.772Z,98509.30
2022-08-17T00:01:27.284Z,98508.11
2022-08-17T00:02:01.463Z,98513.79
2022-08-17T00:03:02.961Z,98512.42
2022-08-17T00:03:40.544Z,98514.55
2022-08-17T00:04:14.113Z,98515.46
2022-08-17T00:04:50.771Z,98515.14
2022-08-17T00:05:24.981Z,98518.72
2022-08-17T00:06:09.037Z,98520.05
2022-08-17T00:06:42.310Z,98519.84
2022-08-17T00:07:19.056Z,98522.19
2022-08-17T00:07:52.229Z,98522.94
2022-08-17T00:08:31.647Z,98521.65
2022-08-17T00:09:05.978Z,98526.68
2022-08-17T00:09:39.590Z,98529.19
2022-08-17T00:10:12.933Z,98526.52
2022-08-17T00:10:46.890Z,98525.89
2022-08-17T00:11:30.820Z,98526.27
2022-08-17T00:12:42.111Z,98527.34
2022-08-17T00:12:58.718Z,98527.63
2022-08-17T00:13:39.263Z,98525.40
2022-08-17T00:14:19.169Z,98525.19
2022-08-17T00:14:52.463Z,98525.90
2022-08-17T00:15:25.665Z,98525.79
2022-08-17T00:16:02.671Z,98522.80
2022-08-17T00:16:55.907Z,98527.83
2022-08-17T00:17:30.815Z,98528.58
2022-08-17T00:18:04.604Z,98529.77
2022-08-17T00:19:07.686Z,98529.50
2022-08-17T00:19:42.117Z,98529.40
2022-08-17T00:20:15.735Z,98530.42
2022-08-17T00:20:52.888Z,98527.27
2022-08-17T00:21:26.818Z,98529.83
2022-08-17T00:22:34.465Z,98527.06
2022-08-17T00:23:15.778Z,98527.06
2022-08-17T00:23:49.534Z,98527.88
2022-08-17T00:24:23.355Z,98527.71
2022-08-17T00:24:56.507Z,98527.63
2022-08-17T00:25:29.665Z,98527.62
2022-08-17T00:26:03.017Z,98525.31
2022-08-17T00:26:44.598Z,98531.63
2022-08-17T00:27:19.633Z,98526.40
2022-08-17T00:27:52.735Z,98522.55
2022-08-17T00:28:28.072Z,98520.20
2022-08-17T00:29:08.717Z,98525.82
2022-08-17T00:29:42.786Z,98524.48
2022-08-17T00:30:16.087Z,98522.67
2022-08-17T00:30:53.433Z,98522.55
2022-08-17T00:31:27.457Z,98520.94
2022-08-17T00:33:12.433Z,98521.85
2022-08-17T00:33:22.800Z,98524.45
2022-08-17T00:33:49.862Z,98524.58
2022-08-17T00:34:25.507Z,98524.80
2022-08-17T00:35:05.556Z,98524.30
2022-08-17T00:35:40.957Z,98526.11
2022-08-17T00:36:15.365Z,98525.36
2022-08-17T00:36:48.631Z,98525.23
2022-08-17T00:37:21.949Z,98524.46
2022-08-17T00:37:55.712Z,98523.98
2022-08-17T00:38:30.416Z,98522.88
2022-08-17T00:39:04.326Z,98524.42
2022-08-17T00:39:37.587Z,98525.71
2022-08-17T00:40:14.320Z,98525.64
2022-08-17T00:40:52.166Z,98525.95
2022-08-17T00:41:29.694Z,98529.64
2022-08-17T00:42:14.976Z,98529.38
2022-08-17T00:42:49.304Z,98529.44
2022-08-17T00:43:30.790Z,98527.51
2022-08-17T00:44:06.955Z,98526.65
2022-08-17T00:44:40.489Z,98529.48
2022-08-17T00:45:16.376Z,98526.86
2022-08-17T00:45:49.866Z,98527.41
2022-08-17T00:46:28.740Z,98525.14
2022-08-17T00:47:01.799Z,98527.49
2022-08-17T00:47:35.050Z,98526.04
2022-08-17T00:48:26.208Z,98527.27
2022-08-17T00:49:01.832Z,98525.24
2022-08-17T00:49:35.017Z,98522.15
2022-08-17T00:50:12.907Z,98521.35
2022-08-17T00:51:12.748Z,98524.13
2022-08-17T00:51:51.135Z,98524.52
2022-08-17T00:52:30.795Z,98523.55
2022-08-17T00:53:05.356Z,98521.14
2022-08-17T00:53:43.515Z,98520.08
2022-08-17T00:54:32.371Z,98519.80
2022-08-17T00:55:07.675Z,98523.27
2022-08-17T00:55:40.905Z,98522.55
2022-08-17T00:56:22.740Z,98520.13
2022-08-17T00:57:01.124Z,98519.90
2022-08-17T00:57:42.788Z,98520.81
2022-08-17T00:58:16.425Z,98519.90
2022-08-17T00:59:07.887Z,98519.75
2022-08-17T01:00:01.617Z,98519.42
2022-08-17T01:00:41.121Z,98518.27
2022-08-17T01:01:21.496Z,98519.98
2022-08-17T01:01:55.176Z,98520.08
2022-08-17T01:02:30.120Z,98518.10
2022-08-17T01:03:13.717Z,98522.00
2022-08-17T01:03:47.037Z,98524.29
2022-08-17T01:04:22.454Z,98521.95
2022-08-17T01:04:57.403Z,98524.78
2022-08-17T01:05:34.174Z,98524.42
2022-08-17T01:06:09.435Z,98525.44
2022-08-17T01:06:43.478Z,98526.29
2022-08-17T01:07:18.054Z,98521.32
2022-08-17T01:07:51.968Z,98523.34
2022-08-17T01:08:27.414Z,98521.27
2022-08-17T01:09:03.738Z,98523.30
2022-08-17T01:09:37.433Z,98521.27
2022-08-17T01:10:57.477Z,98524.00
2022-08-17T01:11:07.938Z,98524.69
2022-08-17T01:11:41.510Z,98524.58
2022-08-17T01:12:14.717Z,98525.55
2022-08-17T01:12:47.731Z,98519.88
2022-08-17T01:13:23.027Z,98523.40
2022-08-17T01:13:56.277Z,98521.80
2022-08-17T01:14:29.423Z,98521.91
2022-08-17T01:15:03.142Z,98522.71
2022-08-17T01:15:39.377Z,98526.45
2022-08-17T01:16:16.635Z,98526.56
2022-08-17T01:16:51.558Z,98525.48
2022-08-17T01:17:27.739Z,98527.30
2022-08-17T01:18:01.052Z,98528.53
2022-08-17T01:18:35.796Z,98527.03
2022-08-17T01:19:18.356Z,98529.02
2022-08-17T01:19:51.496Z,98530.66
2022-08-17T01:20:25.431Z,98532.18
2022-08-17T01:21:04.801Z,98533.83
2022-08-17T01:22:09.089Z,98532.77
2022-08-17T01:22:42.524Z,98532.45
2022-08-17T01:23:20.967Z,98535.54
2022-08-17T01:23:54.615Z,98534.41
2022-08-17T01:24:28.572Z,98535.59
2022-08-17T01:25:06.497Z,98539.16
2022-08-17T01:25:42.110Z,98541.23
2022-08-17T01:26:16.008Z,98539.31
2022-08-17T01:26:49.632Z,98542.58
2022-08-17T01:27:25.246Z,98541.29
2022-08-17T01:27:58.460Z,98540.48
2022-08-17T01:28:54.542Z,98542.99
2022-08-17T01:29:31.395Z,98543.55
2022-08-17T01:30:57.314Z,98543.86
2022-08-17T01:31:07.303Z,98545.48
2022-08-17T01:31:49.559Z,98546.98
2022-08-17T01:32:22.757Z,98547.45
2022-08-17T01:32:56.026Z,98544.83
2022-08-17T01:33:30.166Z,98546.80
2022-08-17T01:34:09.110Z,98548.84
2022-08-17T01:34:43.554Z,98547.39
2022-08-17T01:35:23.341Z,98551.13
2022-08-17T01:35:57.056Z,98551.61
2022-08-17T01:36:30.789Z,98549.42
2022-08-17T01:37:04.621Z,98555.30
2022-08-17T01:37:41.295Z,98554.13
2022-08-17T01:38:14.456Z,98552.80
2022-08-17T01:38:47.642Z,98553.22
2022-08-17T01:39:43.097Z,98550.55
2022-08-17T01:40:26.826Z,98553.21
2022-08-17T01:41:12.057Z,98554.39
2022-08-17T01:41:47.111Z,98554.48
2022-08-17T01:42:31.290Z,98556.27
2022-08-17T01:43:12.496Z,98554.23
2022-08-17T01:43:55.536Z,98552.41
2022-08-17T01:44:28.696Z,98549.39
2022-08-17T01:45:24.005Z,98551.30
2022-08-17T01:46:02.804Z,98551.89
2022-08-17T01:46:39.145Z,98548.73
2022-08-17T01:47:12.620Z,98553.48
2022-08-17T01:47:46.887Z,98551.40
2022-08-17T01:48:21.653Z,98549.52
2022-08-17T01:48:57.838Z,98548.52
2022-08-17T01:49:31.416Z,98551.83
2022-08-17T01:50:20.079Z,98550.52
2022-08-17T01:50:53.716Z,98551.10
2022-08-17T01:51:33.109Z,98550.72
2022-08-17T01:52:11.598Z,98548.36
2022-08-17T01:52:46.807Z,98550.02
2022-08-17T01:53:24.876Z,98550.45
2022-08-17T01:54:11.493Z,98552.84
2022-08-17T01:54:48.040Z,98551.30
2022-08-17T01:55:31.683Z,98546.45
2022-08-17T01:56:11.509Z,98547.67
2022-08-17T01:56:47.836Z,98546.44
2022-08-17T01:57:20.997Z,98548.66
2022-08-17T01:57:54.301Z,98547.06
2022-08-17T01:58:27.584Z,98546.02
2022-08-17T01:59:01.023Z,98546.61
2022-08-17T01:59:34.220Z,98543.94
2022-08-17T02:00:11.157Z,98542.98
2022-08-17T02:00:46.850Z,98543.24
2022-08-17T02:01:35.245Z,98539.08
2022-08-17T02:02:09.040Z,98543.45
2022-08-17T02:02:43.029Z,98543.17
2022-08-17T02:03:16.642Z,98545.30
2022-08-17T02:03:54.552Z,98544.44
2022-08-17T02:04:34.340Z,98542.10
2022-08-17T02:05:08.566Z,98544.70
2022-08-17T02:05:42.353Z,98542.52
2022-08-17T02:06:27.958Z,98546.80
2022-08-17T02:07:01.643Z,98542.79
2022-08-17T02:07:59.511Z,98538.02
2022-08-17T02:08:39.217Z,98540.80
2022-08-17T02:09:29.859Z,98540.01
2022-08-17T02:10:06.215Z,98543.67
2022-08-17T02:10:55.407Z,98541.13
2022-08-17T02:11:28.832Z,98542.55
2022-08-17T02:12:37.862Z,98539.88
2022-08-17T02:12:57.151Z,98539.56
2022-08-17T02:13:31.159Z,98537.66
2022-08-17T02:14:06.340Z,98539.51
2022-08-17T02:14:40.022Z,98542.09
2022-08-17T02:15:15.505Z,98542.23
2022-08-17T02:15:49.693Z,98538.04
2022-08-17T02:16:22.865Z,98542.67
2022-08-17T02:16:56.954Z,98540.38
2022-08-17T02:17:30.041Z,98541.70
2022-08-17T02:18:06.003Z,98541.13
2022-08-17T02:18:39.161Z,98540.48
2022-08-17T02:19:16.030Z,98538.71
2022-08-17T02:19:49.208Z,98540.85
2022-08-17T02:20:41.214Z,98539.67
2022-08-17T02:21:16.115Z,98539.73
2022-08-17T02:21:51.953Z,98541.44
2022-08-17T02:22:26.596Z,98541.39
2022-08-17T02:23:03.877Z,98541.71
2022-08-17T02:23:44.167Z,98542.73
2022-08-17T02:24:58.356Z,98542.88
2022-08-17T02:25:37.031Z,98543.46
2022-08-17T02:26:10.194Z,98545.48
2022-08-17T02:26:58.879Z,98547.30
2022-08-17T02:27:32.535Z,98545.69
2022-08-17T02:28:05.780Z,98547.08
2022-08-17T02:28:38.952Z,98548.52
2022-08-17T02:29:15.077Z,98547.29
2022-08-17T02:29:48.321Z,98546.59
2022-08-17T02:31:02.203Z,98542.05
2022-08-17T02:31:14.808Z,98546.80
2022-08-17T02:31:48.533Z,98546.98
2022-08-17T02:32:28.407Z,98545.98
2022-08-17T02:33:04.093Z,98546.98
2022-08-17T02:33:42.428Z,98546.86
2022-08-17T02:34:16.577Z,98546.21
2022-08-17T02:34:50.950Z,98543.44
2022-08-17T02:35:24.096Z,98548.45
2022-08-17T02:35:58.267Z,98548.08
2022-08-17T02:36:32.941Z,98548.13
2022-08-17T02:37:06.366Z,98547.03
2022-08-17T02:37:42.323Z,98550.33
2022-08-17T02:38:15.655Z,98549.59
2022-08-17T02:38:48.894Z,98550.60
2022-08-17T02:39:22.028Z,98551.08
2022-08-17T02:39:57.306Z,98553.04
2022-08-17T02:40:35.806Z,98554.75
2022-08-17T02:41:10.534Z,98554.86
2022-08-17T02:41:45.477Z,98555.16
2022-08-17T02:42:18.747Z,98555.23
2022-08-17T02:42:51.964Z,98554.44
2022-08-17T02:43:28.927Z,98552.95
2022-08-17T02:44:02.251Z,98555.71
2022-08-17T02:44:39.603Z,98553.04
2022-08-17T02:45:17.639Z,98554.33
2022-08-17T02:45:51.869Z,98553.95
2022-08-17T02:46:26.267Z,98555.98
2022-08-17T02:46:59.841Z,98553.57
2022-08-17T02:47:32.968Z,98556.45
2022-08-17T02:48:06.393Z,98554.27
2022-08-17T02:48:40.515Z,98556.19
2022-08-17T02:49:13.626Z,98553.47
2022-08-17T02:49:54.059Z,98552.71
2022-08-17T02:50:29.728Z,98556.34
2022-08-17T02:51:02.824Z,98555.05
2022-08-17T02:51:37.173Z,98556.02
2022-08-17T02:52:10.361Z,98557.26
2022-08-17T02:52:48.833Z,98556.45
2022-08-17T02:53:35.803Z,98559.91
2022-08-17T02:54:39.814Z,98555.96
2022-08-17T02:55:03.281Z,98559.42
2022-08-17T02:55:40.591Z,98559.58
2022-08-17T02:56:13.781Z,98560.05
2022-08-17T02:56:47.099Z,98558.88
2022-08-17T02:57:20.336Z,98557.55
2022-08-17T02:58:04.108Z,98557.50
2022-08-17T02:58:37.217Z,98560.11
2022-08-17T02:59:10.505Z,98557.34
2022-08-17T02:59:48.816Z,98559.05
2022-08-17T03:00:35.233Z,98559.86
2022-08-17T03:01:12.575Z,98556.07
2022-08-17T03:01:45.949Z,98557.56
2022-08-17T03:02:19.210Z,98559.27
2022-08-17T03:02:52.843Z,98557.73
2022-08-17T03:03:26.712Z,98556.88
2022-08-17T03:04:00.031Z,98557.77
2022-08-17T03:04:35.309Z,98557.41
2022-08-17T03:05:11.831Z,98555.21
2022-08-17T03:05:48.420Z,98555.48
2022-08-17T03:06:21.625Z,98556.82
2022-08-17T03:06:54.831Z,98555.80
2022-08-17T03:07:28.013Z,98554.20
2022-08-17T03:08:02.252Z,98554.42
2022-08-17T03:08:37.801Z,98552.55
2022-08-17T03:09:10.952Z,98555.21
2022-08-17T03:09:44.147Z,98556.23
2022-08-17T03:10:19.790Z,98555.70
2022-08-17T03:10:54.009Z,98554.68
2022-08-17T03:11:27.185Z,98554.31
2022-08-17T03:12:13.141Z,98558.41
2022-08-17T03:12:47.240Z,98556.70
2022-08-17T03:13:21.243Z,98556.21
2022-08-17T03:13:54.525Z,98556.20
2022-08-17T03:14:27.645Z,98556.05
2022-08-17T03:15:15.733Z,98559.02
2022-08-17T03:15:50.236Z,98559.30
2022-08-17T03:16:23.393Z,98555.99
2022-08-17T03:16:56.527Z,98558.07
2022-08-17T03:17:29.621Z,98556.20
2022-08-17T03:18:03.861Z,98557.96
2022-08-17T03:18:37.086Z,98559.08
2022-08-17T03:19:10.374Z,98558.29
2022-08-17T03:19:43.478Z,98557.97
2022-08-17T03:20:17.495Z,98560.59
2022-08-17T03:20:50.611Z,98559.67
2022-08-17T03:21:23.881Z,98559.52
2022-08-17T03:21:59.042Z,98561.58
2022-08-17T03:22:38.483Z,98562.97
2022-08-17T03:23:12.306Z,98563.70
2022-08-17T03:23:45.454Z,98562.21
2022-08-17T03:24:18.603Z,98563.20
2022-08-17T03:24:52.999Z,98563.48
2022-08-17T03:25:32.418Z,98564.81
2022-08-17T03:26:15.395Z,98561.82
2022-08-17T03:26:49.528Z,98566.95
2022-08-17T03:27:22.801Z,98565.50
2022-08-17T03:27:57.130Z,98567.09
2022-08-17T03:28:30.537Z,98565.80
2022-08-17T03:29:03.827Z,98565.00
2022-08-17T03:29:36.962Z,98564.52
2022-08-17T03:30:13.546Z,98566.61
2022-08-17T03:30:46.886Z,98567.03
2022-08-17T03:31:21.707Z,98564.20
2022-08-17T03:31:54.882Z,98563.40
2022-08-17T03:32:28.046Z,98564.90
2022-08-17T03:33:05.117Z,98565.20
2022-08-17T03:33:38.385Z,98566.42
2022-08-17T03:34:11.545Z,98566.80
2022-08-17T03:34:44.803Z,98567.12
2022-08-17T03:35:21.687Z,98568.13
2022-08-17T03:35:55.218Z,98568.95
2022-08-17T03:36:28.471Z,98569.86
2022-08-17T03:37:01.635Z,98569.23
2022-08-17T03:37:35.140Z,98569.36
2022-08-17T03:38:11.477Z,98567.23
2022-08-17T03:38:44.545Z,98570.36
2022-08-17T03:39:18.418Z,98571.70
2022-08-17T03:39:51.689Z,98572.15
2022-08-17T03:40:55.890Z,98573.11
2022-08-17T03:41:18.179Z,98570.70
2022-08-17T03:41:51.411Z,98572.09
2022-08-17T03:42:32.246Z,98570.59
2022-08-17T03:43:10.033Z,98572.95
2022-08-17T03:43:43.423Z,98571.52
2022-08-17T03:44:16.546Z,98571.47
2022-08-17T03:44:57.898Z,98570.66
2022-08-17T03:45:49.788Z,98569.87
2022-08-17T03:46:46.157Z,98571.73
2022-08-17T03:47:38.132Z,98569.50
2022-08-17T03:48:33.273Z,98570.30
2022-08-17T03:49:26.941Z,98571.58
2022-08-17T03:50:18.637Z,98570.61
2022-08-17T03:51:14.645Z,98568.64
2022-08-17T03:52:06.689Z,98566.61
2022-08-17T03:52:58.527Z,98568.21
2022-08-17T03:53:50.784Z,98568.86
2022-08-17T03:54:42.398Z,98569.88
2022-08-17T03:55:36.086Z,98568.55
2022-08-17T03:56:28.619Z,98566.71
2022-08-17T03:57:10.064Z,98571.05
2022-08-17T03:57:43.391Z,98567.90
2022-08-17T03:58:16.575Z,98567.00
2022-08-17T03:58:50.164Z,98566.84
2022-08-17T03:59:23.581Z,98565.67
2022-08-17T04:00:00.248Z,98567.53
2022-08-17T04:00:36.309Z,98567.48
2022-08-17T04:01:14.352Z,98569.36
2022-08-17T04:01:53.734Z,98568.36
2022-08-17T04:02:31.117Z,98567.98
2022-08-17T04:03:04.765Z,98570.85
2022-08-17T04:03:37.848Z,98567.50
2022-08-17T04:04:12.159Z,98565.59
2022-08-17T04:04:45.527Z,98567.41
2022-08-17T04:05:18.706Z,98573.05
2022-08-17T04:05:51.743Z,98571.34
2022-08-17T04:06:24.951Z,98570.23
2022-08-17T04:06:59.030Z,98569.75
2022-08-17T04:07:32.196Z,98571.59
2022-08-17T04:08:05.951Z,98573.28
2022-08-17T04:08:39.632Z,98573.23
2022-08-17T04:09:13.652Z,98574.89
2022-08-17T04:09:47.110Z,98576.08
2022-08-17T04:10:23.622Z,98577.84
2022-08-17T04:11:00.841Z,98580.27
2022-08-17T04:11:35.581Z,98577.55
2022-08-17T04:12:09.282Z,98575.60
2022-08-17T04:12:49.377Z,98575.23
2022-08-17T04:13:24.864Z,98576.94
2022-08-17T04:13:59.053Z,98577.84
2022-08-17T04:14:51.751Z,98576.30
2022-08-17T04:15:28.592Z,98578.86
2022-08-17T04:16:02.316Z,98576.41
2022-08-17T04:16:38.140Z,98576.95
2022-08-17T04:17:11.804Z,98578.91
2022-08-17T04:17:46.123Z,98576.16
2022-08-17T04:18:19.704Z,98577.74
2022-08-17T04:18:53.654Z,98577.89
2022-08-17T04:19:26.772Z,98574.96
2022-08-17T04:19:59.980Z,98578.05
2022-08-17T04:20:33.710Z,98576.73
2022-08-17T04:21:09.219Z,98570.34
2022-08-17T04:21:42.373Z,98576.48
2022-08-17T04:22:32.597Z,98575.30
2022-08-17T04:23:14.758Z,98576.42
2022-08-17T04:23:48.346Z,98576.09
2022-08-17T04:24:21.714Z,98575.34
2022-08-17T04:24:54.875Z,98575.13
2022-08-17T04:25:35.357Z,98574.77
2022-08-17T04:26:08.738Z,98575.77
2022-08-17T04:26:52.443Z,98577.17
2022-08-17T04:27:27.804Z,98576.63
2022-08-17T04:28:01.594Z,98577.01
2022-08-17T04:28:34.825Z,98577.96
2022-08-17T04:29:07.979Z,98576.84
2022-08-17T04:29:50.065Z,98573.01
2022-08-17T04:30:32.503Z,98570.66
2022-08-17T04:31:06.261Z,98573.21
2022-08-17T04:31:40.024Z,98572.16
2022-08-17T04:32:13.159Z,98574.02
2022-08-17T04:33:05.222Z,98573.59
2022-08-17T04:33:44.277Z,98578.50
2022-08-17T04:34:19.712Z,98575.09
2022-08-17T04:34:54.033Z,98576.75
2022-08-17T04:35:32.174Z,98571.69
2022-08-17T04:36:08.022Z,98571.10
2022-08-17T04:36:41.120Z,98570.56
2022-08-17T04:37:24.188Z,98569.23
2022-08-17T04:37:58.255Z,98565.45
2022-08-17T04:38:35.292Z,98568.06
2022-08-17T04:39:08.439Z,98568.10
2022-08-17T04:40:04.077Z,98565.11
2022-08-17T04:40:56.854Z,98564.16
2022-08-17T04:41:48.447Z,98562.33
2022-08-17T04:42:21.709Z,98561.11
2022-08-17T04:43:10.586Z,98561.44
2022-08-17T04:43:45.698Z,98559.52
2022-08-17T04:44:36.768Z,98561.77
2022-08-17T04:45:10.996Z,98563.10
2022-08-17T04:45:56.375Z,98562.20
2022-08-17T04:46:35.891Z,98562.41
2022-08-17T04:47:10.703Z,98559.21
2022-08-17T04:47:46.839Z,98562.78
2022-08-17T04:48:20.566Z,98562.34
2022-08-17T04:48:57.023Z,98562.73
2022-08-17T04:49:30.201Z,98559.80
2022-08-17T04:50:04.557Z,98561.27
2022-08-17T04:50:44.042Z,98562.09
2022-08-17T04:51:32.918Z,98561.13
2022-08-17T04:52:06.331Z,98560.60
2022-08-17T04:52:47.042Z,98560.98
2022-08-17T04:53:21.941Z,98560.86
2022-08-17T04:54:17.129Z,98562.73
2022-08-17T04:54:50.327Z,98568.02
2022-08-17T04:55:23.953Z,98562.83
2022-08-17T04:55:59.491Z,98564.92
2022-08-17T04:56:33.888Z,98566.00
2022-08-17T04:57:07.063Z,98568.17
2022-08-17T04:57:44.534Z,98571.58
2022-08-17T04:58:19.878Z,98570.63
2022-08-17T04:59:01.327Z,98567.11
2022-08-17T04:59:34.522Z,98565.24
2022-08-17T05:00:10.474Z,98568.82
2022-08-17T05:00:44.191Z,98568.55
2022-08-17T05:01:23.326Z,98568.23
2022-08-17T05:01:57.896Z,98569.99
2022-08-17T05:02:32.495Z,98572.18
2022-08-17T05:03:06.514Z,98572.83
2022-08-17T05:03:43.746Z,98572.02
2022-08-17T05:04:34.105Z,98571.33
2022-08-17T05:05:09.125Z,98570.15
2022-08-17T05:05:52.322Z,98568.66
2022-08-17T05:06:27.090Z,98570.42
2022-08-17T05:07:00.315Z,98572.39
2022-08-17T05:07:33.547Z,98570.75
2022-08-17T05:08:08.352Z,98573.11
2022-08-17T05:08:41.628Z,98571.13
2022-08-17T05:09:14.853Z,98572.48
2022-08-17T05:09:48.017Z,98573.34
2022-08-17T05:10:24.006Z,98572.23
2022-08-17T05:10:57.093Z,98572.52
2022-08-17T05:11:31.386Z,98571.52
2022-08-17T05:12:05.008Z,98572.49
2022-08-17T05:12:38.542Z,98572.02
2022-08-17T05:13:16.888Z,98571.67
2022-08-17T05:13:50.523Z,98570.46
2022-08-17T05:14:33.450Z,98572.33
2022-08-17T05:15:17.461Z,98572.38
2022-08-17T05:15:59.708Z,98571.67
2022-08-17T05:16:33.110Z,98571.10
2022-08-17T05:17:07.250Z,98568.38
2022-08-17T05:17:44.567Z,98571.95
2022-08-17T05:18:17.848Z,98575.20
2022-08-17T05:18:52.262Z,98572.48
2022-08-17T05:19:25.348Z,98570.35
2022-08-17T05:19:58.469Z,98573.77
2022-08-17T05:20:32.869Z,98573.88
2022-08-17T05:21:07.119Z,98576.27
2022-08-17T05:21:40.374Z,98575.27
2022-08-17T05:22:14.978Z,98577.51
2022-08-17T05:22:53.802Z,98576.96
2022-08-17T05:23:34.989Z,98576.80
2022-08-17T05:24:39.113Z,98579.94
2022-08-17T05:25:10.443Z,98579.89
2022-08-17T05:25:48.427Z,98584.75
2022-08-17T05:26:26.833Z,98582.98
2022-08-17T05:27:05.052Z,98585.45
2022-08-17T05:27:40.101Z,98583.91
2022-08-17T05:28:22.902Z,98585.02
2022-08-17T05:29:02.772Z,98584.31
2022-08-17T05:29:37.251Z,98585.71
2022-08-17T05:30:10.871Z,98586.83
2022-08-17T05:30:45.138Z,98585.23
2022-08-17T05:31:22.420Z,98587.91
2022-08-17T05:31:56.141Z,98587.64
2022-08-17T05:32:39.626Z,98585.34
2022-08-17T05:33:19.989Z,98587.91
2022-08-17T05:33:53.688Z,98589.12
2022-08-17T05:34:26.973Z,98592.98
2022-08-17T05:35:00.765Z,98591.85
2022-08-17T05:35:37.783Z,98594.45
2022-08-17T05:36:43.363Z,98596.70
2022-08-17T05:37:07.346Z,98595.64
2022-08-17T05:37:40.523Z,98597.13
2022-08-17T05:38:18.399Z,98599.20
2022-08-17T05:38:51.644Z,98593.63
2022-08-17T05:39:24.896Z,98596.25
2022-08-17T05:39:58.163Z,98597.10
2022-08-17T05:40:32.855Z,98597.23
2022-08-17T05:41:08.318Z,98595.71
2022-08-17T05:41:41.468Z,98599.94
2022-08-17T05:42:19.849Z,98598.92
2022-08-17T05:43:23.301Z,98598.42
2022-08-17T05:43:56.794Z,98597.57
2022-08-17T05:44:30.038Z,98599.84
2022-08-17T05:45:04.531Z,98598.20
2022-08-17T05:45:55.494Z,98601.39
2022-08-17T05:46:36.146Z,98598.81
2022-08-17T05:47:09.891Z,98598.59
2022-08-17T05:47:46.938Z,98600.61
2022-08-17T05:48:20.384Z,98597.40
2022-08-17T05:48:59.390Z,98599.30
2022-08-17T05:49:34.055Z,98600.48
2022-08-17T05:50:09.499Z,98599.92
2022-08-17T05:50:56.447Z,98599.39
2022-08-17T05:51:55.999Z,98598.33
2022-08-17T05:52:29.008Z,98601.48
2022-08-17T05:53:28.617Z,98601.71
2022-08-17T05:54:07.638Z,98602.52
2022-08-17T05:54:52.723Z,98600.85
2022-08-17T05:55:35.813Z,98599.57
2022-08-17T05:56:53.272Z,98599.63
2022-08-17T05:57:52.880Z,98596.48
2022-08-17T05:58:45.797Z,98600.50
2022-08-17T05:59:38.649Z,98597.23
2022-08-17T06:00:37.137Z,98600.81
2022-08-17T06:01:34.857Z,98601.29
2022-08-17T06:02:11.063Z,98603.35
2022-08-17T06:02:59.368Z,98604.67
2022-08-17T06:03:47.407Z,98605.63
2022-08-17T06:04:47.446Z,98605.50
2022-08-17T06:05:45.408Z,98610.14
2022-08-17T06:06:31.568Z,98607.03
2022-08-17T06:07:19.855Z,98605.59
2022-08-17T06:08:07.087Z,98603.29
2022-08-17T06:09:11.383Z,98603.23
2022-08-17T06:09:54.436Z,98604.85
2022-08-17T06:10:38.014Z,98606.50
2022-08-17T06:11:37.317Z,98605.36
2022-08-17T06:12:21.728Z,98608.66
2022-08-17T06:13:27.050Z,98606.85
2022-08-17T06:14:08.446Z,98604.23
2022-08-17T06:15:13.883Z,98606.95
2022-08-17T06:16:25.845Z,98606.16
2022-08-17T06:17:07.276Z,98605.22
2022-08-17T06:17:42.438Z,98608.05
2022-08-17T06:18:19.195Z,98609.34
2022-08-17T06:19:10.468Z,98608.52
2022-08-17T06:20:12.899Z,98608.83
2022-08-17T06:20:50.764Z,98609.55
2022-08-17T06:21:26.368Z,98605.52
2022-08-17T06:22:06.801Z,98607.17
2022-08-17T06:22:51.179Z,98608.02
2022-08-17T06:24:13.556Z,98607.27
2022-08-17T06:24:54.434Z,98606.44
2022-08-17T06:25:35.363Z,98603.89
2022-08-17T06:26:38.330Z,98607.40
2022-08-17T06:27:13.494Z,98605.92
2022-08-17T06:27:53.410Z,98603.02
2022-08-17T06:28:47.792Z,98606.05
2022-08-17T06:29:37.364Z,98606.36
2022-08-17T06:30:20.569Z,98606.73
2022-08-17T06:31:01.575Z,98611.14
2022-08-17T06:31:38.847Z,98609.86
2022-08-17T06:32:13.823Z,98611.30
2022-08-17T06:32:51.225Z,98616.45
2022-08-17T06:33:31.271Z,98613.36
2022-08-17T06:34:10.000Z,98617.77
2022-08-17T06:34:46.306Z,98616.91
2022-08-17T06:36:09.386Z,98614.83
2022-08-17T06:37:12.159Z,98620.56
2022-08-17T06:38:10.643Z,98620.61
2022-08-17T06:39:38.159Z,98622.49
2022-08-17T06:40:48.677Z,98620.83
2022-08-17T06:41:58.804Z,98618.69
2022-08-17T06:43:02.000Z,98620.02
2022-08-17T06:44:03.647Z,98617.41
2022-08-17T06:44:49.660Z,98619.02
2022-08-17T06:45:31.638Z,98619.30
2022-08-17T06:46:24.496Z,98618.83
2022-08-17T06:47:09.462Z,98618.69
2022-08-17T06:48:08.065Z,98619.60
2022-08-17T06:49:26.648Z,98621.20
2022-08-17T06:49:59.766Z,98621.17
2022-08-17T06:50:41.114Z,98620.27
2022-08-17T06:51:35.136Z,98621.88
2022-08-17T06:52:45.961Z,98619.68
2022-08-17T06:53:29.701Z,98621.16
2022-08-17T06:54:16.645Z,98623.66
2022-08-17T06:55:17.982Z,98623.66
2022-08-17T06:56:01.818Z,98621.22
2022-08-17T06:57:12.850Z,98624.85
2022-08-17T06:57:53.054Z,98624.59
2022-08-17T06:58:31.583Z,98625.59
2022-08-17T06:59:08.423Z,98626.20
2022-08-17T07:00:02.604Z,98624.86
2022-08-17T07:00:43.266Z,98628.58
2022-08-17T07:01:24.532Z,98629.75
2022-08-17T07:02:05.034Z,98627.84
2022-08-17T07:03:02.552Z,98627.98
2022-08-17T07:03:47.049Z,98627.79
2022-08-17T07:04:27.116Z,98631.10
2022-08-17T07:05:01.963Z,98629.92
2022-08-17T07:06:01.355Z,98629.08
2022-08-17T07:06:41.112Z,98627.70
2022-08-17T07:07:34.278Z,98628.21
2022-08-17T07:08:24.359Z,98625.52
2022-08-17T07:09:15.276Z,98624.27
2022-08-17T07:09:49.814Z,98625.16
2022-08-17T07:10:25.887Z,98621.67
2022-08-17T07:11:04.167Z,98624.64
2022-08-17T07:12:02.609Z,98624.93
2022-08-17T07:12:39.652Z,98626.58
2022-08-17T07:13:37.004Z,98626.75
2022-08-17T07:14:32.137Z,98625.69
2022-08-17T07:15:19.179Z,98627.09
2022-08-17T07:16:00.523Z,98628.48
2022-08-17T07:16:56.884Z,98625.73
2022-08-17T07:17:46.742Z,98628.48
2022-08-17T07:18:24.049Z,98626.84
2022-08-17T07:18:59.782Z,98624.47
2022-08-17T07:19:36.145Z,98627.17
2022-08-17T07:20:18.780Z,98628.71
2022-08-17T07:21:00.522Z,98625.11
2022-08-17T07:21:48.707Z,98627.66
2022-08-17T07:22:53.533Z,98628.36
2022-08-17T07:23:52.163Z,98628.72
2022-08-17T07:24:36.007Z,98630.34
2022-08-17T07:25:12.196Z,98632.30
2022-08-17T07:25:51.082Z,98631.59
2022-08-17T07:26:24.635Z,98633.02
2022-08-17T07:27:32.555Z,98635.60
2022-08-17T07:28:08.052Z,98633.64
2022-08-17T07:28:43.915Z,98634.54
2022-08-17T07:29:20.149Z,98632.17
2022-08-17T07:29:57.196Z,98634.20
2022-08-17T07:30:49.569Z,98632.73
2022-08-17T07:31:26.519Z,98633.09
2022-08-17T07:32:00.112Z,98633.36
2022-08-17T07:32:45.794Z,98635.23
2022-08-17T07:33:21.030Z,98632.30
2022-08-17T07:34:09.081Z,98635.35
2022-08-17T07:35:04.890Z,98636.10
2022-08-17T07:35:44.149Z,98634.27
2022-08-17T07:36:30.052Z,98636.38
2022-08-17T07:37:05.621Z,98636.80
2022-08-17T07:38:25.913Z,98637.55
2022-08-17T07:39:02.060Z,98637.83
2022-08-17T07:39:35.224Z,98635.77
2022-08-17T07:40:37.012Z,98634.27
2022-08-17T07:41:11.689Z,98635.34
2022-08-17T07:41:53.060Z,98633.23
2022-08-17T07:42:31.140Z,98635.84
2022-08-17T07:43:06.813Z,98635.74
2022-08-17T07:43:39.934Z,98635.35
2022-08-17T07:44:16.531Z,98632.95
2022-08-17T07:44:54.659Z,98634.71
2022-08-17T07:45:46.563Z,98637.70
2022-08-17T07:46:53.834Z,98636.27
2022-08-17T07:47:45.681Z,98637.98